Time;durP1;ratioP1;P1;durP2;ratioP2;P2;SDS_P1;SDS_P2;PMS_P1;PMS_P2;Temp;Humidity;BMP_temperature;BMP_pressure;BME280_temperature;BME280_humidity;BME280_pressure;Samples;Min_cycle;Max_cycle;Signal;HPM_P1;HPM_P2
2024/01/21 00:00:43;;;;;;;;;;;-0.90;98.00;;;;;;5061148;28;19908;-79
2024/01/21 00:03:08;;;;;;;;;;;-0.80;98.10;;;;;;5078083;28;19909;-78
2024/01/21 00:05:34;;;;;;;;;;;-0.80;98.90;;;;;;5080098;28;19912;-79
2024/01/21 00:08:00;;;;;;;;;;;-0.80;99.70;;;;;;5066884;28;19920;-78
2024/01/21 00:10:25;;;;;;;;;;;-0.80;99.90;;;;;;5044265;28;19909;-80
2024/01/21 00:12:51;;;;;;;;;;;-0.90;99.90;;;;;;5045281;28;19909;-80
2024/01/21 00:15:16;;;;;;;;;;;-1.00;99.90;;;;;;5057115;28;19920;-79
2024/01/21 00:17:42;;;;;;;;;;;-1.10;99.90;;;;;;5063611;28;20016;-79
2024/01/21 00:20:07;;;;;;;;;;;-1.20;99.90;;;;;;5058230;28;20305;-78
2024/01/21 00:22:33;;;;;;;;;;;-1.20;99.90;;;;;;5056196;28;20452;-79
2024/01/21 00:24:58;;;;;;;;;;;-1.50;99.90;;;;;;5059922;28;19992;-78
2024/01/21 00:27:24;;;;;;;;;;;-1.50;99.90;;;;;;5060107;28;19961;-79
2024/01/21 00:29:49;;;;;;;;;;;-1.40;99.90;;;;;;5059636;28;20369;-81
2024/01/21 00:32:15;;;;;;;;;;;-1.50;99.90;;;;;;5059987;28;19912;-79
2024/01/21 00:34:41;;;;;;;;;;;-1.50;99.90;;;;;;5060530;28;19931;-79
2024/01/21 00:37:06;;;;;;;;;;;-1.50;99.90;;;;;;5060182;28;19917;-78
2024/01/21 00:39:33;;;;;;;;;;;-1.50;99.90;;;;;;5059328;28;19916;-79
2024/01/21 00:41:59;;;;;;;;;;;-1.50;99.90;;;;;;5060166;28;19951;-79
2024/01/21 00:44:25;;;;;;;;;;;-1.50;99.90;;;;;;5060113;28;19908;-79
2024/01/21 00:46:50;;;;;;;;;;;-1.50;99.90;;;;;;5058931;28;19909;-79
2024/01/21 00:49:16;;;;;;;;;;;-1.60;99.90;;;;;;5077278;28;20343;-79
2024/01/21 00:51:41;;;;;;;;;;;-1.60;99.90;;;;;;5058966;28;19915;-78
2024/01/21 00:54:07;;;;;;;;;;;-1.60;99.90;;;;;;5076685;28;19913;-78
2024/01/21 00:56:32;;;;;;;;;;;-1.60;99.90;;;;;;5058403;28;19908;-78
2024/01/21 00:58:58;;;;;;;;;;;-1.60;99.90;;;;;;5057685;28;20400;-78
2024/01/21 01:01:23;;;;;;;;;;;-1.50;99.90;;;;;;5071234;28;20046;-78
2024/01/21 01:03:49;;;;;;;;;;;-1.70;99.90;;;;;;5056337;28;19913;-79
2024/01/21 01:06:14;;;;;;;;;;;-1.60;99.90;;;;;;5059595;28;19967;-79
2024/01/21 01:08:40;;;;;;;;;;;-1.60;99.90;;;;;;5057693;28;20365;-79
2024/01/21 01:11:05;;;;;;;;;;;-1.50;99.90;;;;;;5058715;28;19917;-79
2024/01/21 01:13:31;;;;;;;;;;;-1.50;99.90;;;;;;5060064;28;19915;-79
2024/01/21 01:15:58;;;;;;;;;;;-1.70;99.90;;;;;;5061849;28;19931;-79
2024/01/21 01:18:23;;;;;;;;;;;-1.80;99.90;;;;;;5065289;28;19908;-79
2024/01/21 01:20:49;;;;;;;;;;;-1.90;99.90;;;;;;5068891;28;20400;-79
2024/01/21 01:23:15;;;;;;;;;;;-2.00;99.90;;;;;;5060054;28;19916;-79
2024/01/21 01:25:40;;;;;;;;;;;-1.80;99.90;;;;;;5057875;28;19913;-80
2024/01/21 01:28:06;;;;;;;;;;;-2.10;99.90;;;;;;5056174;28;19921;-80
2024/01/21 01:30:31;;;;;;;;;;;-2.10;99.90;;;;;;5058223;28;19913;-79
2024/01/21 01:32:57;;;;;;;;;;;-2.00;99.90;;;;;;5056725;28;19916;-78
2024/01/21 01:35:25;;;;;;;;;;;-2.10;99.90;;;;;;5055211;28;19952;-79
2024/01/21 01:37:51;;;;;;;;;;;-2.10;99.90;;;;;;5054730;28;20008;-78
2024/01/21 01:40:19;;;;;;;;;;;-2.00;99.90;;;;;;5054650;28;19983;-78
2024/01/21 01:42:52;;;;;;;;;;;-2.10;99.90;;;;;;5052587;28;19909;-78
2024/01/21 01:45:17;;;;;;;;;;;-2.10;99.90;;;;;;5053610;28;20374;-78
2024/01/21 01:47:43;;;;;;;;;;;-2.20;99.90;;;;;;5054925;28;19909;-78
2024/01/21 01:50:09;;;;;;;;;;;-2.30;99.90;;;;;;5053959;28;19913;-77
2024/01/21 01:52:34;;;;;;;;;;;-2.40;99.90;;;;;;5058673;28;19916;-79
2024/01/21 01:55:00;;;;;;;;;;;-2.40;99.90;;;;;;5054816;28;19993;-78
2024/01/21 01:57:26;;;;;;;;;;;-2.40;99.90;;;;;;5054507;28;19913;-78
2024/01/21 01:59:51;;;;;;;;;;;-2.40;99.90;;;;;;5052910;28;20292;-79
2024/01/21 02:02:17;;;;;;;;;;;-2.30;99.90;;;;;;5053334;28;19913;-78
2024/01/21 02:04:42;;;;;;;;;;;-2.20;99.90;;;;;;5052846;28;19963;-79
2024/01/21 02:07:08;;;;;;;;;;;-2.10;99.90;;;;;;5052840;28;20301;-78
2024/01/21 02:09:33;;;;;;;;;;;-2.10;99.90;;;;;;5053309;28;19968;-78
2024/01/21 02:11:59;;;;;;;;;;;-2.20;99.90;;;;;;5052606;28;20377;-78
2024/01/21 02:14:24;;;;;;;;;;;-2.20;99.90;;;;;;5053575;28;19909;-78
2024/01/21 02:16:50;;;;;;;;;;;-2.30;99.90;;;;;;5052431;28;19908;-78
2024/01/21 02:19:26;;;;;;;;;;;-2.30;99.90;;;;;;5052180;28;19909;-78
2024/01/21 02:21:52;;;;;;;;;;;-2.30;99.90;;;;;;5052017;28;19920;-78
2024/01/21 02:24:17;;;;;;;;;;;-2.50;99.90;;;;;;5053192;28;19909;-78
2024/01/21 02:26:43;;;;;;;;;;;-2.50;99.90;;;;;;5056142;28;19916;-77
2024/01/21 02:29:11;;;;;;;;;;;-2.40;99.90;;;;;;5055348;28;20283;-78
2024/01/21 02:31:36;;;;;;;;;;;-2.40;99.90;;;;;;5057286;28;19909;-77
2024/01/21 02:34:02;;;;;;;;;;;-2.50;99.90;;;;;;5055949;28;19916;-78
2024/01/21 02:36:27;;;;;;;;;;;-2.50;99.90;;;;;;5055623;28;19909;-78
2024/01/21 02:38:53;;;;;;;;;;;-2.60;99.90;;;;;;5057360;28;19909;-78
2024/01/21 02:41:18;;;;;;;;;;;-2.70;99.90;;;;;;5057797;28;20373;-78
2024/01/21 02:43:44;;;;;;;;;;;-2.70;99.90;;;;;;5055719;28;19999;-79
2024/01/21 02:46:09;;;;;;;;;;;-2.70;99.90;;;;;;5056887;28;19908;-78
2024/01/21 02:48:35;;;;;;;;;;;-2.70;99.90;;;;;;5055170;28;19924;-78
2024/01/21 02:51:00;;;;;;;;;;;-2.70;99.90;;;;;;5056705;28;19919;-78
2024/01/21 02:53:26;;;;;;;;;;;-2.70;99.90;;;;;;5057173;28;20464;-77
2024/01/21 02:55:51;;;;;;;;;;;-2.80;99.90;;;;;;5057560;28;20328;-78
2024/01/21 02:58:17;;;;;;;;;;;-2.70;99.90;;;;;;5056200;28;19955;-78
2024/01/21 03:00:42;;;;;;;;;;;-2.70;99.90;;;;;;5057731;28;19948;-78
2024/01/21 03:03:10;;;;;;;;;;;-2.50;99.90;;;;;;5055986;28;19913;-78
2024/01/21 03:05:36;;;;;;;;;;;-2.50;99.90;;;;;;5056782;28;19952;-78
2024/01/21 03:08:01;;;;;;;;;;;-2.70;99.90;;;;;;5058665;28;19923;-79
2024/01/21 03:10:27;;;;;;;;;;;-2.70;99.90;;;;;;5058095;28;19916;-78
2024/01/21 03:12:52;;;;;;;;;;;-2.70;99.90;;;;;;5057938;28;19909;-77
2024/01/21 03:15:18;;;;;;;;;;;-2.70;99.90;;;;;;5054303;28;19982;-78
2024/01/21 03:17:43;;;;;;;;;;;-2.80;99.90;;;;;;5053948;28;19908;-77
2024/01/21 03:20:09;;;;;;;;;;;-2.60;99.90;;;;;;5054583;28;19920;-77
2024/01/21 03:22:35;;;;;;;;;;;-2.70;99.90;;;;;;5054518;28;19920;-77
2024/01/21 03:25:00;;;;;;;;;;;-2.70;99.90;;;;;;5054803;28;19912;-78
2024/01/21 03:27:26;;;;;;;;;;;-2.80;99.90;;;;;;5054765;28;19916;-78
2024/01/21 03:29:51;;;;;;;;;;;-2.80;99.90;;;;;;5056304;28;19960;-78
2024/01/21 03:32:17;;;;;;;;;;;-2.80;99.90;;;;;;5061772;28;19909;-79
2024/01/21 03:34:43;;;;;;;;;;;-2.90;99.90;;;;;;5065078;28;19940;-78
2024/01/21 03:37:09;;;;;;;;;;;-2.80;99.90;;;;;;5056751;28;19912;-78
2024/01/21 03:39:34;;;;;;;;;;;-2.70;99.90;;;;;;5056014;28;20289;-78
2024/01/21 03:42:00;;;;;;;;;;;-2.70;99.90;;;;;;5055248;28;19916;-77
2024/01/21 03:44:25;;;;;;;;;;;-2.80;99.90;;;;;;5054902;28;19920;-78
2024/01/21 03:46:51;;;;;;;;;;;-3.00;99.90;;;;;;5057384;28;19908;-78
2024/01/21 03:49:16;;;;;;;;;;;-3.00;99.90;;;;;;5057549;28;19920;-78
2024/01/21 03:51:42;;;;;;;;;;;-2.90;99.90;;;;;;5076543;28;20335;-79
2024/01/21 03:54:07;;;;;;;;;;;-2.90;99.90;;;;;;5058169;28;19912;-78
2024/01/21 03:56:33;;;;;;;;;;;-3.00;99.90;;;;;;5074863;28;19940;-77
2024/01/21 03:58:58;;;;;;;;;;;-3.00;99.90;;;;;;5057132;28;19972;-78
2024/01/21 04:01:24;;;;;;;;;;;-3.00;99.90;;;;;;5058207;28;20365;-78
2024/01/21 04:03:49;;;;;;;;;;;-3.00;99.90;;;;;;5057676;28;19909;-78
2024/01/21 04:06:15;;;;;;;;;;;-3.10;99.90;;;;;;5075326;28;20443;-78
2024/01/21 04:08:40;;;;;;;;;;;-3.10;99.90;;;;;;5060078;28;19920;-79
2024/01/21 04:11:06;;;;;;;;;;;-3.10;99.90;;;;;;5060002;28;19920;-77
2024/01/21 04:13:32;;;;;;;;;;;-3.00;99.90;;;;;;5061095;28;19916;-79
2024/01/21 04:15:57;;;;;;;;;;;-3.00;99.90;;;;;;5060058;28;20454;-78
2024/01/21 04:18:23;;;;;;;;;;;-3.00;99.90;;;;;;5077781;28;19939;-79
2024/01/21 04:20:48;;;;;;;;;;;-3.10;99.90;;;;;;5077574;28;19935;-78
2024/01/21 04:23:14;;;;;;;;;;;-3.10;99.90;;;;;;5076225;28;20313;-78
2024/01/21 04:25:39;;;;;;;;;;;-3.10;99.90;;;;;;5086665;28;19972;-80
2024/01/21 04:28:05;;;;;;;;;;;-3.10;99.90;;;;;;5093042;28;19975;-80
2024/01/21 04:30:30;;;;;;;;;;;-3.20;99.90;;;;;;5075376;28;19936;-80
2024/01/21 04:32:56;;;;;;;;;;;-3.20;99.90;;;;;;5074749;28;19909;-80
2024/01/21 04:35:21;;;;;;;;;;;-3.20;99.90;;;;;;5074392;28;19908;-79
2024/01/21 04:37:48;;;;;;;;;;;-3.10;99.90;;;;;;5073096;28;19919;-80
2024/01/21 04:40:13;;;;;;;;;;;-3.10;99.90;;;;;;5088293;28;19909;-79
2024/01/21 04:42:39;;;;;;;;;;;-3.10;99.90;;;;;;5059248;28;20277;-79
2024/01/21 04:45:05;;;;;;;;;;;-3.20;99.90;;;;;;5059876;28;19923;-79
2024/01/21 04:47:30;;;;;;;;;;;-3.20;99.90;;;;;;5059377;28;19914;-79
2024/01/21 04:49:56;;;;;;;;;;;-3.20;99.90;;;;;;5060408;28;19943;-79
2024/01/21 04:52:21;;;;;;;;;;;-3.10;99.90;;;;;;5078495;28;19909;-79
2024/01/21 04:54:47;;;;;;;;;;;-3.20;99.90;;;;;;5060640;28;19909;-78
2024/01/21 04:57:12;;;;;;;;;;;-3.20;99.90;;;;;;5060774;28;19908;-79
2024/01/21 04:59:38;;;;;;;;;;;-3.30;99.90;;;;;;5059855;28;19912;-79
2024/01/21 05:02:03;;;;;;;;;;;-3.30;99.90;;;;;;5058205;28;20416;-78
2024/01/21 05:04:29;;;;;;;;;;;-3.30;99.90;;;;;;5059107;28;19962;-79
2024/01/21 05:06:54;;;;;;;;;;;-3.20;99.90;;;;;;5058873;28;19909;-78
2024/01/21 05:09:20;;;;;;;;;;;-3.30;99.90;;;;;;5058169;28;19916;-78
2024/01/21 05:11:45;;;;;;;;;;;-3.30;99.90;;;;;;5076989;28;19908;-78
2024/01/21 05:14:11;;;;;;;;;;;-3.20;99.90;;;;;;5076369;28;19908;-78
2024/01/21 05:16:40;;;;;;;;;;;-3.20;99.90;;;;;;5075964;28;19912;-79
2024/01/21 05:19:05;;;;;;;;;;;-3.10;99.90;;;;;;5075956;28;19927;-79
2024/01/21 05:21:31;;;;;;;;;;;-3.20;99.90;;;;;;5075995;28;19921;-79
2024/01/21 05:23:56;;;;;;;;;;;-3.20;99.90;;;;;;5076087;28;19967;-79
2024/01/21 05:26:22;;;;;;;;;;;-3.30;99.90;;;;;;5058052;28;19913;-78
2024/01/21 05:28:47;;;;;;;;;;;-3.30;99.90;;;;;;5058235;28;19917;-78
2024/01/21 05:31:13;;;;;;;;;;;-3.40;99.90;;;;;;5057387;28;19951;-78
2024/01/21 05:33:40;;;;;;;;;;;-3.30;99.90;;;;;;5055025;28;20342;-77
2024/01/21 05:36:06;;;;;;;;;;;-3.20;99.90;;;;;;5051617;28;19946;-78
2024/01/21 05:38:31;;;;;;;;;;;-3.30;99.90;;;;;;5051854;28;20405;-78
2024/01/21 05:40:57;;;;;;;;;;;-3.40;99.90;;;;;;5053226;28;19909;-78
2024/01/21 05:43:22;;;;;;;;;;;-3.40;99.90;;;;;;5053376;28;19909;-78
2024/01/21 05:45:48;;;;;;;;;;;-3.30;99.90;;;;;;5053627;28;20375;-79
2024/01/21 05:48:13;;;;;;;;;;;-3.30;99.90;;;;;;5059133;28;19917;-78
2024/01/21 05:50:39;;;;;;;;;;;-3.20;99.90;;;;;;5053302;28;20004;-77
2024/01/21 05:53:06;;;;;;;;;;;-3.20;99.90;;;;;;5051892;28;19912;-77
2024/01/21 05:55:32;;;;;;;;;;;-3.30;99.90;;;;;;5050967;28;19962;-77
2024/01/21 05:57:58;;;;;;;;;;;-3.30;99.90;;;;;;5052656;28;20392;-77
2024/01/21 06:00:24;;;;;;;;;;;-3.40;99.90;;;;;;5055073;28;19913;-77
2024/01/21 06:02:50;;;;;;;;;;;-3.40;99.90;;;;;;5055377;28;19913;-78
2024/01/21 06:05:16;;;;;;;;;;;-3.40;99.90;;;;;;5055193;28;19970;-77
2024/01/21 06:07:41;;;;;;;;;;;-3.50;99.90;;;;;;5055684;28;19909;-78
2024/01/21 06:10:07;;;;;;;;;;;-3.50;99.90;;;;;;5056518;28;19921;-78
2024/01/21 06:12:32;;;;;;;;;;;-3.60;99.90;;;;;;5055143;28;19909;-78
2024/01/21 06:14:58;;;;;;;;;;;-3.70;99.90;;;;;;5055032;28;20466;-78
2024/01/21 06:17:23;;;;;;;;;;;-3.60;99.90;;;;;;5054869;28;19916;-78
2024/01/21 06:19:49;;;;;;;;;;;-3.50;99.90;;;;;;5054599;28;19932;-78
2024/01/21 06:22:15;;;;;;;;;;;-3.30;99.90;;;;;;5054460;28;19909;-78
2024/01/21 06:24:40;;;;;;;;;;;-3.40;99.90;;;;;;5055604;28;19916;-77
2024/01/21 06:27:06;;;;;;;;;;;-3.40;99.90;;;;;;5055178;28;19912;-78
2024/01/21 06:29:31;;;;;;;;;;;-3.50;99.90;;;;;;5055627;28;20367;-78
2024/01/21 06:31:57;;;;;;;;;;;-3.60;99.90;;;;;;5055941;28;19954;-78
2024/01/21 06:34:22;;;;;;;;;;;-3.50;99.90;;;;;;5057185;28;19912;-78
2024/01/21 06:36:48;;;;;;;;;;;-3.40;99.90;;;;;;5056318;28;19908;-78
2024/01/21 06:39:13;;;;;;;;;;;-3.40;99.90;;;;;;5056071;28;19955;-78
2024/01/21 06:41:39;;;;;;;;;;;-3.40;99.90;;;;;;5067105;28;20304;-78
2024/01/21 06:44:04;;;;;;;;;;;-3.40;99.90;;;;;;5058635;28;19919;-79
2024/01/21 06:46:30;;;;;;;;;;;-3.40;99.90;;;;;;5058694;28;19916;-78
2024/01/21 06:48:55;;;;;;;;;;;-3.50;99.90;;;;;;5076324;28;19917;-77
2024/01/21 06:51:46;;;;;;;;;;;-3.20;99.90;;;;;;5076184;28;20007;-77
2024/01/21 06:54:15;;;;;;;;;;;-3.60;99.90;;;;;;5057264;28;20432;-79
2024/01/21 06:56:40;;;;;;;;;;;-3.60;99.90;;;;;;5054103;28;19909;-77
2024/01/21 06:59:06;;;;;;;;;;;-3.60;99.90;;;;;;5054583;28;19921;-78
2024/01/21 07:01:31;;;;;;;;;;;-3.50;99.90;;;;;;5054956;28;20281;-78
2024/01/21 07:03:57;;;;;;;;;;;-3.40;99.90;;;;;;5054955;28;20282;-77
2024/01/21 07:06:22;;;;;;;;;;;-3.20;99.90;;;;;;5054977;28;19909;-77
2024/01/21 07:08:48;;;;;;;;;;;-3.00;99.90;;;;;;5057474;28;20571;-78
2024/01/21 07:11:13;;;;;;;;;;;-2.90;99.90;;;;;;5056938;28;19958;-78
2024/01/21 07:13:39;;;;;;;;;;;-2.80;99.90;;;;;;5058564;28;19917;-78
2024/01/21 07:16:05;;;;;;;;;;;-2.70;99.90;;;;;;5058453;28;19908;-78
2024/01/21 07:18:30;;;;;;;;;;;-2.40;99.90;;;;;;5058354;28;20292;-78
2024/01/21 07:20:56;;;;;;;;;;;-2.20;99.90;;;;;;5068871;28;19972;-78
2024/01/21 07:23:21;;;;;;;;;;;-1.90;99.90;;;;;;5057024;28;19917;-78
2024/01/21 07:25:47;;;;;;;;;;;-1.50;99.90;;;;;;5054825;28;20423;-78
2024/01/21 07:28:13;;;;;;;;;;;-1.20;99.90;;;;;;5060317;28;19915;-80
2024/01/21 07:30:38;;;;;;;;;;;-1.10;99.90;;;;;;5058084;28;19919;-78
2024/01/21 07:33:04;;;;;;;;;;;-1.10;99.90;;;;;;5077160;28;19908;-77
2024/01/21 07:35:29;;;;;;;;;;;-1.00;99.90;;;;;;5075100;28;20288;-78
2024/01/21 07:37:55;;;;;;;;;;;-0.90;99.90;;;;;;5075412;28;19908;-78
2024/01/21 07:40:20;;;;;;;;;;;-0.60;99.90;;;;;;5075966;28;19909;-77
2024/01/21 07:42:46;;;;;;;;;;;-0.30;99.90;;;;;;5076590;28;19908;-78
2024/01/21 07:45:11;;;;;;;;;;;-0.10;99.90;;;;;;5077011;28;20368;-78
2024/01/21 07:47:37;;;;;;;;;;;-0.10;99.90;;;;;;5076995;28;20016;-77
2024/01/21 07:50:04;;;;;;;;;;;-0.20;99.90;;;;;;5052887;28;19920;-76
2024/01/21 07:52:30;;;;;;;;;;;-0.10;99.90;;;;;;5057221;28;19915;-77
2024/01/21 07:54:55;;;;;;;;;;;0.00;99.90;;;;;;5076472;28;20003;-77
2024/01/21 07:57:21;;;;;;;;;;;0.20;99.90;;;;;;5077067;28;19908;-77
2024/01/21 07:59:46;;;;;;;;;;;0.70;99.90;;;;;;5061483;28;20675;-78
2024/01/21 08:02:12;;;;;;;;;;;1.20;99.20;;;;;;5064690;28;19919;-78
2024/01/21 08:04:38;;;;;;;;;;;1.50;95.40;;;;;;5058471;28;20395;-78
2024/01/21 08:07:03;;;;;;;;;;;1.90;94.70;;;;;;5074549;28;20297;-78
2024/01/21 08:09:29;;;;;;;;;;;2.20;94.30;;;;;;5056643;28;19920;-77
2024/01/21 08:11:55;;;;;;;;;;;2.40;92.70;;;;;;5074729;28;19995;-77
2024/01/21 08:14:21;;;;;;;;;;;2.60;92.40;;;;;;5057537;28;19915;-77
2024/01/21 08:16:46;;;;;;;;;;;2.80;92.60;;;;;;5057591;28;20399;-78
2024/01/21 08:19:12;;;;;;;;;;;3.00;92.20;;;;;;5057637;28;19915;-78
2024/01/21 08:21:37;;;;;;;;;;;3.50;90.90;;;;;;5074398;28;19916;-78
2024/01/21 08:24:03;;;;;;;;;;;3.30;89.40;;;;;;5055147;28;20169;-77
2024/01/21 08:26:29;;;;;;;;;;;3.40;88.60;;;;;;5056215;28;19916;-77
2024/01/21 08:28:54;;;;;;;;;;;3.30;89.50;;;;;;5055347;28;19958;-77
2024/01/21 08:31:20;;;;;;;;;;;3.20;87.30;;;;;;5054996;28;19952;-77
2024/01/21 08:33:46;;;;;;;;;;;2.90;88.70;;;;;;5057191;28;19955;-78
2024/01/21 08:36:11;;;;;;;;;;;2.80;89.70;;;;;;5075053;28;19915;-77
2024/01/21 08:38:38;;;;;;;;;;;2.80;90.40;;;;;;5055573;28;19912;-77
2024/01/21 08:41:03;;;;;;;;;;;2.80;91.00;;;;;;5075035;28;19995;-76
2024/01/21 08:43:29;;;;;;;;;;;2.70;91.30;;;;;;5075530;28;19959;-77
2024/01/21 08:45:55;;;;;;;;;;;2.50;91.70;;;;;;5050297;28;19920;-78
2024/01/21 08:48:20;;;;;;;;;;;2.50;92.50;;;;;;5057270;28;20368;-78
2024/01/21 08:50:46;;;;;;;;;;;2.50;92.00;;;;;;5056977;28;19909;-77
2024/01/21 08:53:11;;;;;;;;;;;2.50;93.20;;;;;;5049610;28;20289;-76
2024/01/21 08:55:37;;;;;;;;;;;2.70;92.50;;;;;;5054566;28;19909;-78
2024/01/21 08:58:02;;;;;;;;;;;2.80;91.40;;;;;;5056622;28;19930;-78
2024/01/21 09:00:28;;;;;;;;;;;2.60;91.90;;;;;;5054417;28;20330;-78
2024/01/21 09:02:53;;;;;;;;;;;2.50;92.10;;;;;;5062184;28;19920;-79
2024/01/21 09:05:19;;;;;;;;;;;2.60;92.10;;;;;;5069507;28;20292;-78
2024/01/21 09:07:45;;;;;;;;;;;2.60;91.70;;;;;;5069550;28;20301;-79
2024/01/21 09:10:10;;;;;;;;;;;2.50;91.90;;;;;;5054059;28;19924;-78
2024/01/21 09:12:36;;;;;;;;;;;2.30;92.70;;;;;;5058872;28;20292;-79
2024/01/21 09:15:02;;;;;;;;;;;2.30;92.20;;;;;;5038442;28;19908;-78
2024/01/21 09:17:28;;;;;;;;;;;2.50;91.90;;;;;;5056213;28;19912;-79
2024/01/21 09:19:53;;;;;;;;;;;2.30;92.30;;;;;;5056165;28;19990;-78
2024/01/21 09:22:19;;;;;;;;;;;2.20;92.10;;;;;;5055441;28;20438;-79
2024/01/21 09:24:45;;;;;;;;;;;2.30;92.30;;;;;;5037716;28;20427;-78
2024/01/21 09:27:11;;;;;;;;;;;2.40;92.40;;;;;;5037543;28;19923;-78
2024/01/21 09:29:36;;;;;;;;;;;2.40;92.50;;;;;;5043989;28;19928;-77
2024/01/21 09:32:02;;;;;;;;;;;2.40;93.10;;;;;;5045965;28;19909;-78
2024/01/21 09:34:27;;;;;;;;;;;2.20;93.10;;;;;;5048278;28;19970;-79
2024/01/21 09:36:53;;;;;;;;;;;2.20;93.20;;;;;;5051545;28;19913;-79
2024/01/21 09:39:19;;;;;;;;;;;2.40;92.80;;;;;;5049925;28;19958;-79
2024/01/21 09:41:51;;;;;;;;;;;2.00;92.60;;;;;;5065451;28;20455;-78
2024/01/21 09:44:35;;;;;;;;;;;2.10;93.70;;;;;;5066832;28;19908;-78
2024/01/21 09:47:01;;;;;;;;;;;2.30;92.40;;;;;;5044337;28;19919;-78
2024/01/21 09:49:27;;;;;;;;;;;2.20;92.80;;;;;;5033377;28;19927;-78
2024/01/21 09:51:53;;;;;;;;;;;2.40;92.90;;;;;;5064515;28;19961;-78
2024/01/21 09:54:19;;;;;;;;;;;2.30;92.80;;;;;;5045768;28;19917;-78
2024/01/21 09:56:45;;;;;;;;;;;2.20;92.70;;;;;;5050747;28;19909;-78
2024/01/21 09:59:11;;;;;;;;;;;2.20;93.00;;;;;;5043711;28;19909;-77
2024/01/21 10:01:37;;;;;;;;;;;2.50;92.90;;;;;;5038178;28;19913;-79
2024/01/21 10:04:03;;;;;;;;;;;2.20;93.00;;;;;;5038456;28;19916;-78
2024/01/21 10:06:29;;;;;;;;;;;2.10;93.50;;;;;;5061667;28;19913;-78
2024/01/21 10:09:10;;;;;;;;;;;2.30;92.30;;;;;;5074881;28;19921;-78
2024/01/21 10:11:35;;;;;;;;;;;2.20;92.50;;;;;;5063424;28;19913;-79
2024/01/21 10:14:01;;;;;;;;;;;2.10;93.30;;;;;;5057968;28;19967;-78
2024/01/21 10:16:26;;;;;;;;;;;2.00;93.30;;;;;;5053136;28;20007;-78
2024/01/21 10:18:52;;;;;;;;;;;2.30;92.10;;;;;;5074819;28;20327;-78
2024/01/21 10:21:18;;;;;;;;;;;2.50;91.60;;;;;;5056981;28;19935;-78
2024/01/21 10:23:43;;;;;;;;;;;2.50;91.10;;;;;;5074510;28;19917;-79
2024/01/21 10:26:09;;;;;;;;;;;2.40;90.80;;;;;;5055460;28;19971;-78
2024/01/21 10:28:35;;;;;;;;;;;2.60;91.10;;;;;;5056579;28;19923;-79
2024/01/21 10:31:00;;;;;;;;;;;2.60;91.10;;;;;;5074573;28;19955;-79
2024/01/21 10:33:26;;;;;;;;;;;2.50;91.50;;;;;;5057136;28;19915;-79
2024/01/21 10:35:54;;;;;;;;;;;2.30;90.70;;;;;;5074320;28;19920;-79
2024/01/21 10:38:23;;;;;;;;;;;2.20;91.30;;;;;;5057630;28;19908;-79
2024/01/21 10:40:49;;;;;;;;;;;2.20;91.50;;;;;;5057999;28;19908;-78
2024/01/21 10:43:14;;;;;;;;;;;2.20;92.20;;;;;;5057665;28;19962;-79
2024/01/21 10:45:42;;;;;;;;;;;2.10;92.20;;;;;;5059283;28;19908;-78
2024/01/21 10:48:08;;;;;;;;;;;2.10;92.00;;;;;;5063495;28;19909;-77
2024/01/21 10:50:34;;;;;;;;;;;2.00;91.60;;;;;;5059742;28;20266;-78
2024/01/21 10:53:00;;;;;;;;;;;2.10;91.60;;;;;;5058795;28;19946;-79
2024/01/21 10:55:27;;;;;;;;;;;2.20;91.70;;;;;;5060554;28;20368;-77
2024/01/21 10:57:52;;;;;;;;;;;2.60;90.20;;;;;;5060110;28;19909;-78
2024/01/21 11:00:18;;;;;;;;;;;2.60;90.10;;;;;;5061233;28;19915;-79
2024/01/21 11:03:02;;;;;;;;;;;2.80;89.30;;;;;;5061666;28;19909;-78
2024/01/21 11:05:28;;;;;;;;;;;2.70;89.50;;;;;;5062131;28;19923;-78
2024/01/21 11:08:01;;;;;;;;;;;2.60;90.20;;;;;;5062447;28;19909;-77
2024/01/21 11:10:26;;;;;;;;;;;2.70;90.10;;;;;;5087710;28;19931;-81
2024/01/21 11:12:56;;;;;;;;;;;2.80;89.50;;;;;;5074727;28;19908;-79
2024/01/21 11:15:29;;;;;;;;;;;2.80;90.70;;;;;;5075026;28;19913;-80
2024/01/21 11:18:07;;;;;;;;;;;2.80;90.00;;;;;;5073907;28;19936;-80
2024/01/21 11:20:33;;;;;;;;;;;2.70;90.30;;;;;;5091082;28;19924;-81
2024/01/21 11:23:01;;;;;;;;;;;2.90;89.10;;;;;;5067104;28;19939;-80
2024/01/21 11:25:33;;;;;;;;;;;2.90;90.10;;;;;;5068748;28;19916;-80
2024/01/21 11:28:22;;;;;;;;;;;2.80;90.70;;;;;;5068668;28;19909;-79
2024/01/21 11:30:48;;;;;;;;;;;3.00;90.30;;;;;;5069575;28;19916;-80
2024/01/21 11:33:15;;;;;;;;;;;2.90;91.00;;;;;;5084740;28;19916;-79
2024/01/21 11:35:41;;;;;;;;;;;2.90;90.60;;;;;;5067392;28;19964;-80
2024/01/21 11:38:07;;;;;;;;;;;3.00;90.30;;;;;;5066333;28;20431;-79
2024/01/21 11:40:32;;;;;;;;;;;3.00;90.60;;;;;;5087655;28;19931;-79
2024/01/21 11:42:58;;;;;;;;;;;2.90;91.00;;;;;;5065590;28;20328;-80
2024/01/21 11:45:24;;;;;;;;;;;3.00;91.30;;;;;;5067128;28;19909;-80
2024/01/21 11:47:49;;;;;;;;;;;3.20;90.70;;;;;;5069412;28;19913;-79
2024/01/21 11:50:17;;;;;;;;;;;3.00;90.90;;;;;;5070872;28;20206;-81
2024/01/21 11:52:42;;;;;;;;;;;2.80;91.40;;;;;;5071416;28;20301;-81
2024/01/21 11:55:08;;;;;;;;;;;2.80;91.90;;;;;;5087064;28;19958;-80
2024/01/21 11:57:34;;;;;;;;;;;3.00;92.20;;;;;;5072019;28;19913;-80
2024/01/21 11:59:59;;;;;;;;;;;3.20;91.50;;;;;;5055634;28;19912;-81
2024/01/21 12:02:25;;;;;;;;;;;2.90;91.30;;;;;;5053838;28;20543;-80
2024/01/21 12:04:50;;;;;;;;;;;3.00;90.90;;;;;;5068358;28;19919;-81
2024/01/21 12:07:16;;;;;;;;;;;3.10;91.80;;;;;;5088092;28;19912;-78
2024/01/21 12:09:41;;;;;;;;;;;3.00;91.30;;;;;;5078586;28;19950;-80
2024/01/21 12:12:08;;;;;;;;;;;3.00;90.80;;;;;;5057184;28;19916;-81
2024/01/21 12:14:33;;;;;;;;;;;3.10;90.80;;;;;;5070277;28;19909;-80
2024/01/21 12:17:00;;;;;;;;;;;3.00;91.60;;;;;;5063016;28;20007;-80
2024/01/21 12:19:27;;;;;;;;;;;3.00;91.50;;;;;;5065820;28;19908;-81
2024/01/21 12:21:54;;;;;;;;;;;3.10;91.10;;;;;;5083885;28;19913;-80
2024/01/21 12:24:26;;;;;;;;;;;3.00;91.40;;;;;;5086201;28;19916;-80
2024/01/21 12:26:53;;;;;;;;;;;3.00;91.80;;;;;;5070348;28;19909;-80
2024/01/21 12:29:20;;;;;;;;;;;2.80;91.90;;;;;;5066727;28;19955;-82
2024/01/21 12:31:45;;;;;;;;;;;2.90;92.60;;;;;;5057820;28;19913;-81
2024/01/21 12:34:11;;;;;;;;;;;3.10;92.10;;;;;;5070118;28;20258;-80
2024/01/21 12:36:37;;;;;;;;;;;3.00;92.90;;;;;;5067351;28;19916;-79
2024/01/21 12:39:04;;;;;;;;;;;2.90;93.10;;;;;;5068260;28;19952;-81
2024/01/21 12:41:30;;;;;;;;;;;3.00;92.10;;;;;;5064370;28;20330;-79
2024/01/21 12:43:55;;;;;;;;;;;3.00;92.80;;;;;;5067032;28;19927;-79
2024/01/21 12:46:21;;;;;;;;;;;3.00;93.10;;;;;;5064302;28;20286;-80
2024/01/21 12:48:48;;;;;;;;;;;3.00;93.10;;;;;;5064906;28;19920;-80
2024/01/21 12:51:14;;;;;;;;;;;3.10;92.80;;;;;;5068278;28;20031;-79
2024/01/21 12:53:41;;;;;;;;;;;3.00;92.30;;;;;;5070692;28;19923;-80
2024/01/21 12:56:07;;;;;;;;;;;3.00;91.70;;;;;;5071144;28;19938;-81
2024/01/21 12:58:32;;;;;;;;;;;2.90;91.90;;;;;;5068352;28;19992;-80
2024/01/21 13:00:58;;;;;;;;;;;2.90;92.40;;;;;;5070774;28;19947;-81
2024/01/21 13:03:26;;;;;;;;;;;2.80;92.30;;;;;;5070733;28;19909;-80
2024/01/21 13:05:51;;;;;;;;;;;2.90;92.30;;;;;;5070200;28;19893;-81
2024/01/21 13:08:17;;;;;;;;;;;2.90;91.90;;;;;;5069671;28;19951;-80
2024/01/21 13:10:42;;;;;;;;;;;2.90;92.30;;;;;;5066458;28;19904;-81
2024/01/21 13:13:08;;;;;;;;;;;2.90;92.10;;;;;;5068850;28;19908;-80
2024/01/21 13:15:33;;;;;;;;;;;3.10;91.60;;;;;;5068788;28;19909;-82
2024/01/21 13:18:00;;;;;;;;;;;2.90;91.30;;;;;;5075645;28;19912;-80
2024/01/21 13:20:26;;;;;;;;;;;3.00;90.70;;;;;;5059625;28;19952;-79
2024/01/21 13:22:52;;;;;;;;;;;2.90;90.70;;;;;;5064914;28;19909;-81
2024/01/21 13:25:20;;;;;;;;;;;3.00;91.20;;;;;;5054070;28;19932;-80
2024/01/21 13:27:55;;;;;;;;;;;2.80;91.80;;;;;;5071943;28;19934;-82
2024/01/21 13:33:06;;;;;;;;;;;2.90;91.20;;;;;;5070033;28;19915;-80
2024/01/21 13:35:35;;;;;;;;;;;2.90;91.50;;;;;;5054104;28;19974;-81
2024/01/21 13:38:01;;;;;;;;;;;2.80;90.90;;;;;;5070946;28;19917;-82
2024/01/21 13:40:26;;;;;;;;;;;2.70;91.00;;;;;;5053510;28;19924;-82
2024/01/21 13:42:54;;;;;;;;;;;2.70;92.40;;;;;;5067961;28;20301;-80
2024/01/21 13:45:20;;;;;;;;;;;2.80;94.30;;;;;;5065258;28;19917;-80
2024/01/21 13:47:45;;;;;;;;;;;2.70;95.10;;;;;;5049675;28;19913;-79
2024/01/21 13:50:11;;;;;;;;;;;2.60;95.70;;;;;;5053932;28;19927;-81
2024/01/21 13:52:36;;;;;;;;;;;2.60;96.30;;;;;;5070359;28;19924;-80
2024/01/21 13:55:05;;;;;;;;;;;2.50;97.00;;;;;;5052375;28;19912;-80
2024/01/21 13:57:30;;;;;;;;;;;2.40;97.50;;;;;;5049349;28;20016;-80
2024/01/21 13:59:56;;;;;;;;;;;2.40;98.30;;;;;;5068754;28;19913;-80
2024/01/21 14:02:21;;;;;;;;;;;2.40;98.80;;;;;;5047508;28;19949;-80
2024/01/21 14:04:47;;;;;;;;;;;2.30;99.10;;;;;;5067741;28;19908;-81
2024/01/21 14:07:12;;;;;;;;;;;2.30;99.70;;;;;;5051190;28;19971;-79
2024/01/21 14:09:38;;;;;;;;;;;2.40;99.50;;;;;;5051260;28;19920;-80
2024/01/21 14:12:04;;;;;;;;;;;2.30;99.90;;;;;;5051218;28;19909;-82
2024/01/21 14:14:29;;;;;;;;;;;2.20;99.90;;;;;;5069498;28;19955;-82
2024/01/21 14:16:55;;;;;;;;;;;2.20;99.90;;;;;;5065881;28;19913;-80
2024/01/21 14:19:20;;;;;;;;;;;2.20;99.90;;;;;;5068273;28;19900;-80